Terminal Aerodrome Forecast
Issued by NWS

Home | Current Version | Previous Version | Text Only | Print | Product List | Glossary On
Versions: 1 2 3 4 5 6 7 8 9 10 11 12 13 14
875
FTUS46 KPDT 031120
TAFRDM
TAF
KRDM 031120Z 0312/0412 17004KT P6SM BKN110 BKN200
     FM032000 28010KT P6SM BKN100 BKN200
     FM032200 33010KT P6SM VCSH SCT080 BKN100
     FM040100 29006KT P6SM -SHRA OVC070
     FM040900 17004KT P6SM VCSH OVC070=

USA.gov is the U.S. government's official web portal to all federal, state and local government web resources and services.